Aviation Digital Data Service (ADDS)

Output produced by METARs form (0014 UTC 20 April 2019)
found at http://www.aviationweather.gov/metar/data/
 
Forecast for: VTCT (CHIANG RAI INTL , TH)
Text: TAF VTCT 192300Z 2000/2106 18005KT 9999 FEW030
Forecast period: 0000 UTC 20 April 2019 to 0600 UTC 21 April 2019
Forecast type: FROM: standard forecast or significant change
Winds: from the S (180 degrees) at 6 MPH (5 knots; 2.6 m/s)
Visibility: 6 or more miles 10+ km)
Ceiling: at least 12,000 feet AGL
Clouds: few clouds at 3000 feet AGL
Weather: no significant weather forecast for this period